MMLP/LAP METAR and TAF weather

Enter ICAO airport designator
Station Type Date Time Source
MMLP METAR 2020/09/18 02:45 UTC NOAA

MMLP 180245Z 19011KT 10SM SKC 29/20 A2981 8/ RMK METAR MMML 180240Z 00000KT 10SM SKC 40/M01 A2973 RMK SLP068 57003 963 ISOL CI


Station Type Date Time Source
MMLP Decoded METAR 2020/09/18 02:45 UTC NOAA

La Paz International Airport, Mexico (MMLP) 24-04N 110-22W
Sep 17, 2020 - 10:45 PM EDT / 2020.09.18 0245 UTC
Wind: from the S (190 degrees) at 13 MPH (11 KT):0
Visibility: 10 mile(s):0
Sky conditions: clear
Temperature: 84 F (29 C)
Dew Point: 68 F (20 C)
Relative Humidity: 58%
Pressure (altimeter): 29.81 in. Hg (1009 hPa)
ob: MMLP 180245Z 19011KT 10SM SKC 29/20 A2981 8/ RMK METAR MMML 180240Z 00000KT 10SM SKC 40/M01 A2973 RMK SLP068 57003 963 ISOL CI
cycle: 3

Station Type Date Time Source
MMLP TAF 2020/09/18 06:53 UTC NOAA

TAF MMLP 180446Z 1806/1906 20006KT P6SM SKC
FM181800 05010KT P6SM SCT100
BECMG 1900/1901 04005KT

Example: see airport list